JAL33LR RJFF-RJTT
Flight info
| Callsign | JAL33LR |
|---|---|
| Flight time | N/A |
| Altitude | 41000 |
| Route | IPRIR Y231 OMKAT Y235 FLUTE Y23 ARTIC Y71 XAC |
| Aircraft | B772/H-SDE2E3FGHIJ5LORVWXY/LB1D1 |
Departure
| Time | 2026-05-08 16:26 |
|---|---|
| Airport | Fukuoka Airport (RJFF) |
Arrival
| Time | N/A |
|---|---|
| Airport | Tokyo Haneda International Airport (RJTT) |
| Time | Latitude | Longitude | Altitude | Speed | Heading |
|---|---|---|---|---|---|
| 2026-05-08 15:56 | 33.59647 | 130.44791 | 47 ft | 0 kts | 60° |
| 2026-05-08 16:18 | 33.59637 | 130.44769 | 47 ft | 3 kts | 59° |
| 2026-05-08 16:19 | 33.59624 | 130.44743 | 47 ft | 3 kts | 63° |
| 2026-05-08 16:19 | 33.59618 | 130.44730 | 47 ft | 3 kts | 63° |
| 2026-05-08 16:19 | 33.59606 | 130.44713 | 47 ft | 2 kts | 23° |
| 2026-05-08 16:19 | 33.59591 | 130.44710 | 47 ft | 1 kts | 342° |
| 2026-05-08 16:20 | 33.59580 | 130.44716 | 47 ft | 1 kts | 327° |
| 2026-05-08 16:20 | 33.59566 | 130.44730 | 47 ft | 3 kts | 318° |
| 2026-05-08 16:20 | 33.59550 | 130.44743 | 47 ft | 0 kts | 329° |
| 2026-05-08 16:22 | 33.59551 | 130.44743 | 47 ft | 1 kts | 329° |
| 2026-05-08 16:23 | 33.59586 | 130.44717 | 47 ft | 10 kts | 329° |
| 2026-05-08 16:23 | 33.59671 | 130.44659 | 47 ft | 16 kts | 330° |
| 2026-05-08 16:23 | 33.59766 | 130.44595 | 47 ft | 8 kts | 330° |
| 2026-05-08 16:23 | 33.59778 | 130.44528 | 47 ft | 11 kts | 246° |
| 2026-05-08 16:24 | 33.59739 | 130.44443 | 47 ft | 0 kts | 241° |
| 2026-05-08 16:24 | 33.59732 | 130.44426 | 47 ft | 4 kts | 240° |
| 2026-05-08 16:24 | 33.59709 | 130.44377 | 47 ft | 8 kts | 240° |
| 2026-05-08 16:24 | 33.59680 | 130.44339 | 47 ft | 6 kts | 198° |
| 2026-05-08 16:25 | 33.59649 | 130.44347 | 47 ft | 0 kts | 149° |
| 2026-05-08 16:25 | 33.59616 | 130.44369 | 47 ft | 13 kts | 149° |
| 2026-05-08 16:25 | 33.59412 | 130.44508 | 47 ft | 67 kts | 149° |
| 2026-05-08 16:26 | 33.58787 | 130.44936 | 48 ft | 135 kts | 150° |
| 2026-05-08 16:26 | 33.57844 | 130.45577 | 304 ft | 163 kts | 149° |
| 2026-05-08 16:26 | 33.56837 | 130.46258 | 949 ft | 170 kts | 149° |
| 2026-05-08 16:26 | 33.55763 | 130.46942 | 1490 ft | 185 kts | 150° |
| 2026-05-08 16:27 | 33.54582 | 130.47687 | 1959 ft | 201 kts | 150° |
| 2026-05-08 16:27 | 33.53307 | 130.48473 | 2567 ft | 210 kts | 150° |
| 2026-05-08 16:27 | 33.51960 | 130.49312 | 3024 ft | 230 kts | 150° |
| 2026-05-08 16:27 | 33.49972 | 130.50542 | 3790 ft | 251 kts | 151° |
| 2026-05-08 16:28 | 33.48927 | 130.51181 | 4219 ft | 258 kts | 152° |
| 2026-05-08 16:28 | 33.47302 | 130.52171 | 4931 ft | 266 kts | 152° |
| 2026-05-08 16:28 | 33.45608 | 130.53217 | 5476 ft | 282 kts | 152° |
| 2026-05-08 16:28 | 33.43829 | 130.54315 | 6128 ft | 293 kts | 152° |
| 2026-05-08 16:29 | 33.42024 | 130.55432 | 7072 ft | 297 kts | 153° |
| 2026-05-08 16:29 | 33.40171 | 130.56578 | 7946 ft | 303 kts | 153° |
| 2026-05-08 16:29 | 33.38280 | 130.57747 | 8765 ft | 311 kts | 153° |
| 2026-05-08 16:29 | 33.36356 | 130.58939 | 9584 ft | 317 kts | 154° |
| 2026-05-08 16:30 | 33.34444 | 130.60316 | 10417 ft | 324 kts | 145° |
| 2026-05-08 16:30 | 33.32721 | 130.62061 | 11314 ft | 328 kts | 136° |
| 2026-05-08 16:30 | 33.31242 | 130.64117 | 12088 ft | 335 kts | 126° |
| 2026-05-08 16:30 | 33.30030 | 130.66511 | 12927 ft | 339 kts | 116° |
| 2026-05-08 16:31 | 33.29156 | 130.69150 | 13687 ft | 345 kts | 106° |
| 2026-05-08 16:31 | 33.28660 | 130.71968 | 14378 ft | 351 kts | 95° |
| 2026-05-08 16:31 | 33.28580 | 130.74866 | 15065 ft | 356 kts | 84° |
| 2026-05-08 16:31 | 33.29154 | 130.78751 | 16022 ft | 358 kts | 68° |
| 2026-05-08 16:32 | 33.29695 | 130.80633 | 16435 ft | 362 kts | 66° |
| 2026-05-08 16:32 | 33.30546 | 130.83524 | 16853 ft | 379 kts | 68° |
| 2026-05-08 16:32 | 33.31380 | 130.86609 | 17221 ft | 397 kts | 69° |
| 2026-05-08 16:32 | 33.32211 | 130.89831 | 17538 ft | 415 kts | 70° |
| 2026-05-08 16:33 | 33.33050 | 130.93158 | 17868 ft | 432 kts | 70° |
| 2026-05-08 16:33 | 33.33921 | 130.96660 | 18191 ft | 449 kts | 71° |
| 2026-05-08 16:33 | 33.34823 | 131.00311 | 18469 ft | 466 kts | 71° |
| 2026-05-08 16:33 | 33.35745 | 131.04074 | 18896 ft | 478 kts | 71° |
| 2026-05-08 16:34 | 33.36684 | 131.07930 | 19515 ft | 484 kts | 71° |
| 2026-05-08 16:34 | 33.37620 | 131.11793 | 20184 ft | 489 kts | 71° |
| 2026-05-08 16:34 | 33.38509 | 131.15718 | 20723 ft | 497 kts | 76° |
| 2026-05-08 16:34 | 33.39169 | 131.19815 | 21229 ft | 505 kts | 79° |
| 2026-05-08 16:35 | 33.39790 | 131.23975 | 21738 ft | 513 kts | 79° |
| 2026-05-08 16:35 | 33.40416 | 131.28186 | 22287 ft | 519 kts | 79° |
| 2026-05-08 16:35 | 33.41045 | 131.32422 | 22799 ft | 525 kts | 79° |
| 2026-05-08 16:35 | 33.41898 | 131.38176 | 23543 ft | 533 kts | 79° |
| 2026-05-08 16:36 | 33.42329 | 131.41097 | 23958 ft | 536 kts | 79° |
| 2026-05-08 16:36 | 33.42977 | 131.45479 | 24581 ft | 540 kts | 79° |
| 2026-05-08 16:36 | 33.43634 | 131.49931 | 25233 ft | 544 kts | 80° |
| 2026-05-08 16:36 | 33.44285 | 131.54362 | 25814 ft | 548 kts | 80° |
| 2026-05-08 16:37 | 33.44951 | 131.58902 | 26353 ft | 554 kts | 80° |
| 2026-05-08 16:37 | 33.45611 | 131.63409 | 26891 ft | 559 kts | 81° |
| 2026-05-08 16:37 | 33.46281 | 131.68001 | 27444 ft | 562 kts | 81° |
| 2026-05-08 16:37 | 33.46960 | 131.72661 | 27885 ft | 569 kts | 81° |
| 2026-05-08 16:38 | 33.47635 | 131.77307 | 28328 ft | 574 kts | 82° |
| 2026-05-08 16:38 | 33.48319 | 131.82036 | 28874 ft | 577 kts | 81° |
| 2026-05-08 16:38 | 33.49000 | 131.86748 | 29402 ft | 580 kts | 82° |
| 2026-05-08 16:38 | 33.49686 | 131.91509 | 29918 ft | 584 kts | 81° |
| 2026-05-08 16:39 | 33.50372 | 131.96280 | 30379 ft | 588 kts | 81° |
| 2026-05-08 16:39 | 33.51071 | 132.01157 | 30909 ft | 590 kts | 82° |
| 2026-05-08 16:39 | 33.51759 | 132.05969 | 31577 ft | 589 kts | 82° |
| 2026-05-08 16:39 | 33.52440 | 132.10747 | 32337 ft | 586 kts | 82° |
| 2026-05-08 16:40 | 33.53129 | 132.15584 | 33176 ft | 581 kts | 82° |
| 2026-05-08 16:40 | 33.53807 | 132.20363 | 33919 ft | 578 kts | 82° |
| 2026-05-08 16:40 | 33.54481 | 132.25133 | 34573 ft | 577 kts | 82° |
| 2026-05-08 16:40 | 33.55195 | 132.29842 | 35145 ft | 577 kts | 78° |
| 2026-05-08 16:41 | 33.56309 | 132.34456 | 35630 ft | 578 kts | 71° |
| 2026-05-08 16:41 | 33.57639 | 132.38977 | 36163 ft | 577 kts | 69° |
| 2026-05-08 16:41 | 33.59002 | 132.43532 | 36669 ft | 576 kts | 69° |
| 2026-05-08 16:42 | 33.61692 | 132.52547 | 37567 ft | 575 kts | 69° |
| 2026-05-08 16:42 | 33.63032 | 132.57051 | 37947 ft | 576 kts | 69° |
| 2026-05-08 16:42 | 33.64367 | 132.61554 | 38253 ft | 577 kts | 69° |
| 2026-05-08 16:42 | 33.65715 | 132.66107 | 38547 ft | 578 kts | 69° |
| 2026-05-08 16:43 | 33.67045 | 132.70612 | 38804 ft | 579 kts | 69° |
| 2026-05-08 16:43 | 33.68393 | 132.75185 | 39088 ft | 579 kts | 69° |
| 2026-05-08 16:43 | 33.69737 | 132.79755 | 39350 ft | 580 kts | 69° |
| 2026-05-08 16:43 | 33.71067 | 132.84286 | 39669 ft | 578 kts | 69° |
| 2026-05-08 16:44 | 33.72406 | 132.88855 | 40031 ft | 576 kts | 69° |
| 2026-05-08 16:44 | 33.73720 | 132.93343 | 40322 ft | 575 kts | 69° |
| 2026-05-08 16:44 | 33.75044 | 132.97878 | 40492 ft | 576 kts | 69° |
| 2026-05-08 16:44 | 33.76364 | 133.02402 | 40599 ft | 577 kts | 69° |
| 2026-05-08 16:45 | 33.77678 | 133.06912 | 40739 ft | 578 kts | 69° |
| 2026-05-08 16:45 | 33.80337 | 133.16067 | 40921 ft | 579 kts | 69° |
| 2026-05-08 16:45 | 33.82085 | 133.22102 | 41054 ft | 581 kts | 69° |
| 2026-05-08 16:46 | 33.82972 | 133.25166 | 41061 ft | 582 kts | 69° |
| 2026-05-08 16:46 | 33.85636 | 133.34395 | 41067 ft | 587 kts | 69° |
| 2026-05-08 16:47 | 33.88316 | 133.43709 | 41073 ft | 591 kts | 69° |
| 2026-05-08 16:47 | 33.90993 | 133.53043 | 41068 ft | 593 kts | 70° |
| 2026-05-08 16:48 | 33.93667 | 133.62398 | 41061 ft | 593 kts | 69° |
| 2026-05-08 16:48 | 33.96331 | 133.71750 | 41041 ft | 594 kts | 70° |
| 2026-05-08 16:49 | 33.99043 | 133.81119 | 41049 ft | 594 kts | 70° |
| 2026-05-08 16:49 | 34.01687 | 133.90520 | 41043 ft | 594 kts | 70° |
| 2026-05-08 16:50 | 34.04091 | 134.00030 | 41058 ft | 595 kts | 77° |
| 2026-05-08 16:50 | 34.05885 | 134.09727 | 41044 ft | 596 kts | 78° |
| 2026-05-08 16:51 | 34.07661 | 134.19473 | 41058 ft | 596 kts | 78° |
| 2026-05-08 16:51 | 34.09433 | 134.29221 | 41069 ft | 597 kts | 78° |
| 2026-05-08 16:52 | 34.11190 | 134.38916 | 41077 ft | 596 kts | 78° |
| 2026-05-08 16:52 | 34.12950 | 134.48663 | 41045 ft | 595 kts | 78° |
| 2026-05-08 16:53 | 34.15584 | 134.63333 | 41004 ft | 595 kts | 78° |
| 2026-05-08 16:53 | 34.17321 | 134.73065 | 41023 ft | 596 kts | 78° |
| 2026-05-08 16:54 | 34.19047 | 134.82777 | 40986 ft | 596 kts | 79° |
| 2026-05-08 16:54 | 34.20773 | 134.92531 | 40990 ft | 595 kts | 79° |
| 2026-05-08 16:55 | 34.22481 | 135.02293 | 40993 ft | 597 kts | 79° |
| 2026-05-08 16:55 | 34.24146 | 135.12118 | 40983 ft | 595 kts | 79° |
| 2026-05-08 16:56 | 34.25795 | 135.21902 | 40991 ft | 596 kts | 79° |
| 2026-05-08 16:56 | 34.27428 | 135.31630 | 40981 ft | 596 kts | 80° |
| 2026-05-08 16:57 | 34.29071 | 135.41457 | 40999 ft | 595 kts | 80° |
| 2026-05-08 16:57 | 34.30695 | 135.51225 | 40996 ft | 594 kts | 79° |
| 2026-05-08 16:58 | 34.32305 | 135.60957 | 40993 ft | 595 kts | 80° |
| 2026-05-08 16:58 | 34.33918 | 135.70760 | 40970 ft | 595 kts | 80° |
| 2026-05-08 16:59 | 34.35522 | 135.80553 | 40970 ft | 594 kts | 80° |
| 2026-05-08 16:59 | 34.37380 | 135.91965 | 40966 ft | 593 kts | 80° |
| 2026-05-08 17:00 | 34.38695 | 136.00082 | 40968 ft | 594 kts | 81° |
| 2026-05-08 17:00 | 34.40277 | 136.09895 | 40974 ft | 593 kts | 81° |
| 2026-05-08 17:01 | 34.41837 | 136.19629 | 40975 ft | 592 kts | 80° |
| 2026-05-08 17:01 | 34.43391 | 136.29382 | 40960 ft | 594 kts | 80° |
| 2026-05-08 17:02 | 34.44942 | 136.39168 | 40978 ft | 594 kts | 81° |
| 2026-05-08 17:02 | 34.46502 | 136.49056 | 40978 ft | 594 kts | 80° |
| 2026-05-08 17:03 | 34.48027 | 136.58777 | 40985 ft | 592 kts | 80° |
| 2026-05-08 17:03 | 34.49558 | 136.68596 | 40949 ft | 593 kts | 82° |
| 2026-05-08 17:04 | 34.51078 | 136.78391 | 40946 ft | 593 kts | 82° |
| 2026-05-08 17:04 | 34.52583 | 136.88150 | 40947 ft | 594 kts | 82° |
| 2026-05-08 17:05 | 34.53789 | 136.98056 | 40936 ft | 590 kts | 91° |
| 2026-05-08 17:05 | 34.53939 | 137.07941 | 40964 ft | 588 kts | 93° |
| 2026-05-08 17:06 | 34.54014 | 137.17747 | 40925 ft | 585 kts | 93° |
| 2026-05-08 17:06 | 34.54079 | 137.27589 | 40918 ft | 586 kts | 94° |
| 2026-05-08 17:07 | 34.54137 | 137.37477 | 40878 ft | 586 kts | 94° |
| 2026-05-08 17:07 | 34.54187 | 137.47292 | 40901 ft | 586 kts | 93° |
| 2026-05-08 17:08 | 34.54229 | 137.57155 | 40866 ft | 585 kts | 94° |
| 2026-05-08 17:08 | 34.54263 | 137.66969 | 40886 ft | 584 kts | 94° |
| 2026-05-08 17:09 | 34.54277 | 137.71811 | 40751 ft | 575 kts | 94° |
| 2026-05-08 17:09 | 34.54291 | 137.76587 | 40314 ft | 567 kts | 95° |
| 2026-05-08 17:09 | 34.54301 | 137.81352 | 39682 ft | 561 kts | 95° |
| 2026-05-08 17:09 | 34.54309 | 137.86041 | 38863 ft | 560 kts | 95° |
| 2026-05-08 17:10 | 34.54313 | 137.90741 | 37822 ft | 565 kts | 95° |
| 2026-05-08 17:10 | 34.54315 | 137.95493 | 36738 ft | 569 kts | 95° |
| 2026-05-08 17:10 | 34.54317 | 138.00313 | 35834 ft | 569 kts | 95° |
| 2026-05-08 17:10 | 34.54317 | 138.05057 | 35110 ft | 566 kts | 96° |
| 2026-05-08 17:11 | 34.54310 | 138.09767 | 34238 ft | 565 kts | 96° |
| 2026-05-08 17:11 | 34.54299 | 138.14517 | 33137 ft | 570 kts | 95° |
| 2026-05-08 17:11 | 34.54285 | 138.19330 | 32153 ft | 571 kts | 95° |
| 2026-05-08 17:11 | 34.54272 | 138.24132 | 31466 ft | 566 kts | 96° |
| 2026-05-08 17:12 | 34.54258 | 138.28836 | 30828 ft | 560 kts | 96° |
| 2026-05-08 17:12 | 34.54380 | 138.33559 | 29930 ft | 564 kts | 89° |
| 2026-05-08 17:12 | 34.54983 | 138.38243 | 28871 ft | 573 kts | 80° |
| 2026-05-08 17:12 | 34.56119 | 138.42864 | 28105 ft | 573 kts | 71° |
| 2026-05-08 17:13 | 34.57716 | 138.47224 | 27561 ft | 567 kts | 64° |
| 2026-05-08 17:13 | 34.59487 | 138.51479 | 27078 ft | 559 kts | 63° |
| 2026-05-08 17:13 | 34.61223 | 138.55615 | 26448 ft | 554 kts | 63° |
| 2026-05-08 17:13 | 34.62963 | 138.59778 | 25767 ft | 551 kts | 63° |
| 2026-05-08 17:14 | 34.64684 | 138.63910 | 25109 ft | 547 kts | 63° |
| 2026-05-08 17:14 | 34.66388 | 138.68015 | 24457 ft | 542 kts | 64° |
| 2026-05-08 17:14 | 34.68069 | 138.72078 | 23774 ft | 539 kts | 63° |
| 2026-05-08 17:14 | 34.69630 | 138.76189 | 23116 ft | 534 kts | 71° |
| 2026-05-08 17:15 | 34.70695 | 138.80425 | 22511 ft | 527 kts | 80° |
| 2026-05-08 17:15 | 34.71243 | 138.84796 | 21977 ft | 516 kts | 90° |
| 2026-05-08 17:15 | 34.71363 | 138.89049 | 21483 ft | 507 kts | 94° |
| 2026-05-08 17:15 | 34.71391 | 138.93318 | 20903 ft | 502 kts | 94° |
| 2026-05-08 17:16 | 34.71403 | 138.97536 | 20306 ft | 498 kts | 94° |
| 2026-05-08 17:16 | 34.71406 | 139.01730 | 19771 ft | 491 kts | 94° |
| 2026-05-08 17:16 | 34.71402 | 139.05808 | 19274 ft | 484 kts | 94° |
| 2026-05-08 17:16 | 34.71393 | 139.09892 | 18779 ft | 477 kts | 94° |
| 2026-05-08 17:17 | 34.71380 | 139.13844 | 18245 ft | 472 kts | 94° |
| 2026-05-08 17:17 | 34.71363 | 139.17836 | 17670 ft | 467 kts | 94° |
| 2026-05-08 17:17 | 34.71343 | 139.21733 | 17077 ft | 463 kts | 94° |
| 2026-05-08 17:17 | 34.71321 | 139.25606 | 16495 ft | 459 kts | 94° |
| 2026-05-08 17:18 | 34.71313 | 139.29475 | 15876 ft | 457 kts | 91° |
| 2026-05-08 17:18 | 34.71659 | 139.33295 | 15270 ft | 456 kts | 81° |
| 2026-05-08 17:18 | 34.72502 | 139.36998 | 14666 ft | 454 kts | 70° |
| 2026-05-08 17:18 | 34.73817 | 139.40442 | 14069 ft | 450 kts | 59° |
| 2026-05-08 17:19 | 34.75545 | 139.43521 | 13503 ft | 443 kts | 48° |
| 2026-05-08 17:19 | 34.77652 | 139.46216 | 12919 ft | 435 kts | 38° |
| 2026-05-08 17:19 | 34.80021 | 139.48439 | 12317 ft | 428 kts | 30° |
| 2026-05-08 17:19 | 34.83265 | 139.51097 | 11626 ft | 421 kts | 29° |
| 2026-05-08 17:20 | 34.84877 | 139.52406 | 11246 ft | 418 kts | 28° |
| 2026-05-08 17:20 | 34.87299 | 139.54372 | 10729 ft | 413 kts | 28° |
| 2026-05-08 17:20 | 34.90458 | 139.56934 | 10184 ft | 402 kts | 28° |
| 2026-05-08 17:20 | 34.91980 | 139.58170 | 10121 ft | 391 kts | 28° |
| 2026-05-08 17:21 | 34.94202 | 139.59975 | 10074 ft | 374 kts | 28° |
| 2026-05-08 17:21 | 34.96336 | 139.61706 | 10039 ft | 359 kts | 27° |
| 2026-05-08 17:21 | 34.98363 | 139.63351 | 10021 ft | 344 kts | 27° |
| 2026-05-08 17:21 | 35.00322 | 139.64938 | 9952 ft | 333 kts | 27° |
| 2026-05-08 17:22 | 35.02232 | 139.66483 | 9581 ft | 333 kts | 27° |
| 2026-05-08 17:22 | 35.04168 | 139.68048 | 9151 ft | 335 kts | 28° |
| 2026-05-08 17:22 | 35.06119 | 139.69632 | 8820 ft | 333 kts | 28° |
| 2026-05-08 17:22 | 35.08012 | 139.71175 | 8559 ft | 327 kts | 28° |
| 2026-05-08 17:23 | 35.09936 | 139.72737 | 8058 ft | 330 kts | 28° |
| 2026-05-08 17:23 | 35.11822 | 139.74274 | 7878 ft | 319 kts | 29° |
| 2026-05-08 17:23 | 35.13653 | 139.75764 | 7390 ft | 322 kts | 29° |
| 2026-05-08 17:23 | 35.15501 | 139.77272 | 7115 ft | 314 kts | 29° |
| 2026-05-08 17:24 | 35.17292 | 139.78735 | 6938 ft | 303 kts | 28° |
| 2026-05-08 17:24 | 35.19046 | 139.80113 | 6626 ft | 295 kts | 20° |
| 2026-05-08 17:24 | 35.20954 | 139.80751 | 6243 ft | 276 kts | 354° |
| 2026-05-08 17:24 | 35.22797 | 139.80543 | 5882 ft | 264 kts | 341° |
| 2026-05-08 17:25 | 35.24545 | 139.80078 | 5783 ft | 248 kts | 338° |
| 2026-05-08 17:25 | 35.26165 | 139.79585 | 5749 ft | 233 kts | 338° |
| 2026-05-08 17:25 | 35.27713 | 139.79097 | 5693 ft | 223 kts | 336° |
| 2026-05-08 17:25 | 35.29207 | 139.78616 | 5471 ft | 221 kts | 336° |
| 2026-05-08 17:26 | 35.30703 | 139.78224 | 5259 ft | 226 kts | 348° |
| 2026-05-08 17:26 | 35.32305 | 139.78540 | 5020 ft | 241 kts | 16° |
| 2026-05-08 17:26 | 35.33778 | 139.79527 | 4873 ft | 242 kts | 25° |
| 2026-05-08 17:26 | 35.35225 | 139.80638 | 4616 ft | 242 kts | 26° |
| 2026-05-08 17:27 | 35.37044 | 139.82066 | 4483 ft | 222 kts | 25° |
| 2026-05-08 17:27 | 35.37891 | 139.82727 | 4426 ft | 210 kts | 25° |
| 2026-05-08 17:27 | 35.39093 | 139.83661 | 3939 ft | 203 kts | 24° |
| 2026-05-08 17:27 | 35.40267 | 139.84561 | 3477 ft | 198 kts | 20° |